Time;durP1;ratioP1;P1;durP2;ratioP2;P2;SDS_P1;SDS_P2;PMS_P1;PMS_P2;Temp;Humidity;BMP_temperature;BMP_pressure;BME280_temperature;BME280_humidity;BME280_pressure;Samples;Min_cycle;Max_cycle;Signal;HPM_P1;HPM_P2
2023/09/06 00:01:45;;;;;;;7.17;4.73;;;;;;;;;;4918926;29;20189;-81
2023/09/06 00:04:49;;;;;;;9.17;4.23;;;;;;;;;;4918343;29;20188;-82
2023/09/06 00:07:54;;;;;;;5.93;4.70;;;;;;;;;;4918685;29;20185;-81
2023/09/06 00:11:04;;;;;;;5.03;4.20;;;;;;;;;;4918792;29;20181;-81
2023/09/06 00:14:08;;;;;;;6.10;5.13;;;;;;;;;;4907071;29;20225;-81
2023/09/06 00:17:12;;;;;;;5.60;4.60;;;;;;;;;;4917602;29;20189;-82
2023/09/06 00:20:24;;;;;;;8.50;5.43;;;;;;;;;;4907354;29;20520;-81
2023/09/06 00:23:28;;;;;;;7.70;5.70;;;;;;;;;;4918777;29;20216;-81
2023/09/06 00:26:32;;;;;;;7.03;6.03;;;;;;;;;;4917663;29;20189;-81
2023/09/06 00:29:36;;;;;;;9.90;6.13;;;;;;;;;;4918943;29;20189;-82
2023/09/06 00:32:41;;;;;;;7.87;5.70;;;;;;;;;;4917821;29;20228;-82
2023/09/06 00:35:45;;;;;;;11.23;6.10;;;;;;;;;;4917549;29;20213;-81
2023/09/06 00:38:49;;;;;;;6.77;5.47;;;;;;;;;;4918280;29;20188;-81
2023/09/06 00:41:53;;;;;;;8.13;5.80;;;;;;;;;;4917775;29;20180;-81
2023/09/06 00:44:57;;;;;;;8.70;5.97;;;;;;;;;;4921550;29;20185;-81
2023/09/06 00:48:04;;;;;;;7.40;6.23;;;;;;;;;;4921208;29;20189;-81
2023/09/06 00:51:09;;;;;;;9.93;6.37;;;;;;;;;;4921269;29;20185;-81
2023/09/06 00:54:14;;;;;;;6.93;5.80;;;;;;;;;;4922045;29;20216;-81
2023/09/06 00:57:18;;;;;;;9.00;5.77;;;;;;;;;;4921758;29;20181;-82
2023/09/06 01:00:23;;;;;;;6.63;5.30;;;;;;;;;;4921859;29;20185;-82
2023/09/06 01:03:27;;;;;;;6.83;5.43;;;;;;;;;;4920850;29;20221;-82
2023/09/06 01:06:34;;;;;;;7.63;5.30;;;;;;;;;;4920602;29;20181;-82
2023/09/06 01:09:38;;;;;;;9.97;5.67;;;;;;;;;;4920731;29;20181;-81
2023/09/06 01:12:42;;;;;;;7.07;5.80;;;;;;;;;;4920864;29;20220;-81
2023/09/06 01:15:50;;;;;;;7.77;5.23;;;;;;;;;;4920532;29;20213;-82
2023/09/06 01:18:55;;;;;;;8.07;5.27;;;;;;;;;;4921041;29;20185;-81
2023/09/06 01:22:08;;;;;;;6.20;5.20;;;;;;;;;;4921853;29;20181;-81
2023/09/06 01:25:12;;;;;;;6.83;5.10;;;;;;;;;;4909867;29;20177;-81
2023/09/06 01:28:15;;;;;;;4.90;4.40;;;;;;;;;;4909650;29;20181;-81
2023/09/06 01:31:19;;;;;;;5.07;4.53;;;;;;;;;;4920496;29;20185;-81
2023/09/06 01:34:24;;;;;;;6.00;4.53;;;;;;;;;;4920841;29;20220;-81
2023/09/06 01:37:30;;;;;;;7.63;4.87;;;;;;;;;;4921451;29;20188;-81
2023/09/06 01:40:34;;;;;;;6.50;4.80;;;;;;;;;;4921605;29;20189;-81
2023/09/06 01:43:38;;;;;;;8.87;4.00;;;;;;;;;;4920082;29;20224;-81
2023/09/06 01:46:42;;;;;;;9.00;5.17;;;;;;;;;;4920613;29;20181;-81
2023/09/06 01:49:46;;;;;;;7.00;4.70;;;;;;;;;;4920986;29;20189;-81
2023/09/06 01:52:52;;;;;;;6.37;4.50;;;;;;;;;;4920557;29;20216;-81
2023/09/06 01:55:58;;;;;;;5.43;4.43;;;;;;;;;;4919843;29;20213;-81
2023/09/06 01:59:03;;;;;;;10.03;5.20;;;;;;;;;;4909816;29;20189;-81
2023/09/06 02:02:07;;;;;;;6.57;4.97;;;;;;;;;;4920027;29;20228;-81
2023/09/06 02:05:12;;;;;;;4.97;4.47;;;;;;;;;;4920335;29;20177;-81
2023/09/06 02:08:16;;;;;;;5.57;4.73;;;;;;;;;;4909331;29;20189;-81
2023/09/06 02:11:20;;;;;;;8.60;4.63;;;;;;;;;;4920184;29;20189;-81
2023/09/06 02:14:25;;;;;;;7.07;4.93;;;;;;;;;;4919835;29;20233;-81
2023/09/06 02:17:29;;;;;;;9.67;5.67;;;;;;;;;;4919848;29;20185;-81
2023/09/06 02:20:33;;;;;;;5.33;4.53;;;;;;;;;;4919813;29;20189;-81
2023/09/06 02:23:37;;;;;;;8.37;4.67;;;;;;;;;;4920060;29;20690;-81
2023/09/06 02:26:43;;;;;;;6.63;4.83;;;;;;;;;;4919516;29;20181;-81
2023/09/06 02:29:47;;;;;;;5.00;4.50;;;;;;;;;;4919841;29;20188;-82
2023/09/06 02:32:55;;;;;;;8.33;4.50;;;;;;;;;;4908789;29;20220;-81
2023/09/06 02:35:58;;;;;;;8.33;5.10;;;;;;;;;;4920075;29;20662;-81
2023/09/06 02:39:03;;;;;;;9.10;4.90;;;;;;;;;;4919677;29;20184;-81
2023/09/06 02:42:07;;;;;;;7.47;4.50;;;;;;;;;;4920301;29;20220;-81
2023/09/06 02:45:11;;;;;;;6.50;4.37;;;;;;;;;;4920264;29;20181;-81
2023/09/06 02:48:18;;;;;;;6.13;4.90;;;;;;;;;;4908763;29;20185;-81
2023/09/06 02:51:23;;;;;;;7.80;4.80;;;;;;;;;;4919884;29;20184;-81
2023/09/06 02:54:29;;;;;;;6.87;4.73;;;;;;;;;;4919769;29;20213;-82
2023/09/06 02:57:34;;;;;;;5.67;5.07;;;;;;;;;;4919168;29;20539;-81
2023/09/06 03:00:40;;;;;;;5.93;5.30;;;;;;;;;;4920138;29;20193;-82
2023/09/06 03:03:44;;;;;;;5.43;4.93;;;;;;;;;;4920417;29;20220;-81
2023/09/06 03:06:48;;;;;;;7.00;5.17;;;;;;;;;;4918860;29;20189;-81
2023/09/06 03:09:52;;;;;;;7.80;5.50;;;;;;;;;;4908244;29;20181;-81
2023/09/06 03:12:57;;;;;;;8.20;5.47;;;;;;;;;;4918841;29;20220;-82
2023/09/06 03:16:04;;;;;;;9.67;4.93;;;;;;;;;;4918885;29;20670;-81
2023/09/06 03:19:10;;;;;;;7.47;4.93;;;;;;;;;;4918720;29;20634;-81
2023/09/06 03:22:15;;;;;;;6.03;5.43;;;;;;;;;;4919211;29;20221;-81
2023/09/06 03:25:20;;;;;;;5.27;4.73;;;;;;;;;;4918777;29;20188;-81
2023/09/06 03:28:25;;;;;;;7.43;5.70;;;;;;;;;;4918732;29;20180;-81
2023/09/06 03:31:33;;;;;;;5.63;4.97;;;;;;;;;;4919633;29;20181;-81
2023/09/06 03:34:40;;;;;;;7.63;5.47;;;;;;;;;;4918835;29;20540;-81
2023/09/06 03:37:45;;;;;;;5.70;5.07;;;;;;;;;;4908083;29;20181;-81
2023/09/06 03:40:49;;;;;;;6.07;5.13;;;;;;;;;;4919119;29;20631;-81
2023/09/06 03:43:53;;;;;;;6.10;5.30;;;;;;;;;;4918196;29;20690;-81
2023/09/06 03:46:57;;;;;;;7.27;5.13;;;;;;;;;;4919046;29;20185;-81
2023/09/06 03:50:01;;;;;;;26.83;6.40;;;;;;;;;;4919723;29;20185;-81
2023/09/06 03:53:05;;;;;;;14.67;5.87;;;;;;;;;;4907717;29;20244;-81
2023/09/06 03:56:10;;;;;;;10.90;5.50;;;;;;;;;;4907219;29;20216;-81
2023/09/06 03:59:21;;;;;;;11.90;6.07;;;;;;;;;;4907771;29;20176;-81
2023/09/06 04:02:27;;;;;;;8.30;5.40;;;;;;;;;;4918002;29;20224;-81
2023/09/06 04:05:32;;;;;;;14.50;6.13;;;;;;;;;;4918644;29;20181;-81
2023/09/06 04:08:38;;;;;;;6.87;5.63;;;;;;;;;;4918139;29;20184;-81
2023/09/06 04:11:43;;;;;;;8.80;5.50;;;;;;;;;;4918609;29;20181;-81
2023/09/06 04:14:47;;;;;;;8.27;5.87;;;;;;;;;;4917906;29;20208;-81
2023/09/06 04:17:58;;;;;;;6.87;5.37;;;;;;;;;;4921480;29;20185;-81
2023/09/06 04:21:08;;;;;;;7.13;4.70;;;;;;;;;;4924680;29;20181;-81
2023/09/06 04:24:12;;;;;;;6.40;4.90;;;;;;;;;;4924435;29;20184;-81
2023/09/06 04:27:17;;;;;;;5.83;4.90;;;;;;;;;;4924759;29;20188;-81
2023/09/06 04:30:23;;;;;;;10.77;5.90;;;;;;;;;;4913927;29;20630;-81
2023/09/06 04:33:27;;;;;;;12.07;6.13;;;;;;;;;;4926362;29;20220;-83
2023/09/06 04:36:44;;;;;;;5.40;4.90;;;;;;;;;;4916911;29;20212;-83
2023/09/06 04:39:53;;;;;;;11.00;5.70;;;;;;;;;;4914765;29;20189;-82
2023/09/06 04:42:58;;;;;;;8.23;5.20;;;;;;;;;;4926059;29;20224;-83
2023/09/06 04:46:03;;;;;;;7.57;5.40;;;;;;;;;;4925474;29;20176;-83
2023/09/06 04:49:12;;;;;;;6.23;4.80;;;;;;;;;;4925344;29;20185;-83
2023/09/06 04:52:16;;;;;;;7.47;5.10;;;;;;;;;;4925355;29;20224;-84
2023/09/06 04:55:21;;;;;;;7.30;4.90;;;;;;;;;;4914682;29;20216;-85
2023/09/06 04:58:27;;;;;;;12.13;5.23;;;;;;;;;;4913997;29;20184;-84
2023/09/06 05:01:31;;;;;;;5.43;4.40;;;;;;;;;;4914544;29;20181;-84
2023/09/06 05:04:36;;;;;;;9.60;5.03;;;;;;;;;;4925240;29;20181;-84
2023/09/06 05:07:41;;;;;;;12.17;4.93;;;;;;;;;;4914539;29;20248;-84
2023/09/06 05:10:50;;;;;;;7.23;5.17;;;;;;;;;;4914718;29;20184;-84
2023/09/06 05:13:55;;;;;;;10.93;5.10;;;;;;;;;;4925230;29;20228;-84
2023/09/06 05:17:01;;;;;;;10.07;5.07;;;;;;;;;;4915387;29;20216;-84
2023/09/06 05:20:30;;;;;;;7.53;5.13;;;;;;;;;;4913914;29;20181;-84
2023/09/06 05:23:36;;;;;;;15.60;5.23;;;;;;;;;;4924767;29;20220;-84
2023/09/06 05:26:41;;;;;;;11.13;5.90;;;;;;;;;;4924377;29;20181;-84
2023/09/06 05:29:45;;;;;;;12.13;5.73;;;;;;;;;;4911970;29;20185;-84
2023/09/06 05:32:49;;;;;;;13.83;5.27;;;;;;;;;;4920050;29;20225;-84
2023/09/06 05:35:56;;;;;;;12.13;5.70;;;;;;;;;;4921452;29;20216;-84
2023/09/06 05:39:00;;;;;;;8.07;5.30;;;;;;;;;;4922322;29;20189;-84
2023/09/06 05:42:05;;;;;;;14.87;7.00;;;;;;;;;;4920852;29;20220;-84
2023/09/06 05:45:11;;;;;;;13.73;7.37;;;;;;;;;;4921600;29;20667;-84
2023/09/06 05:48:18;;;;;;;20.03;8.20;;;;;;;;;;4911186;29;20749;-84
2023/09/06 05:51:22;;;;;;;12.50;7.63;;;;;;;;;;4921808;29;20193;-84
2023/09/06 05:54:27;;;;;;;13.90;7.00;;;;;;;;;;4921374;29;20185;-84
2023/09/06 05:57:32;;;;;;;13.67;7.90;;;;;;;;;;4921192;29;20185;-84
2023/09/06 06:00:36;;;;;;;13.73;7.77;;;;;;;;;;4900756;29;20189;-83
2023/09/06 06:03:41;;;;;;;18.60;7.70;;;;;;;;;;4922120;29;20224;-84
2023/09/06 06:06:45;;;;;;;16.67;7.77;;;;;;;;;;4910058;29;20177;-85
2023/09/06 06:09:49;;;;;;;12.60;7.77;;;;;;;;;;4920106;29;20177;-84
2023/09/06 06:12:53;;;;;;;17.63;8.57;;;;;;;;;;4911213;29;20229;-84
2023/09/06 06:15:57;;;;;;;12.77;7.63;;;;;;;;;;4910974;29;20547;-84
2023/09/06 06:19:03;;;;;;;17.77;8.37;;;;;;;;;;4922061;29;20185;-85
2023/09/06 06:22:07;;;;;;;14.30;8.50;;;;;;;;;;4922574;29;20221;-84
2023/09/06 06:25:11;;;;;;;13.60;8.33;;;;;;;;;;4922648;29;20185;-84
2023/09/06 06:28:15;;;;;;;12.63;9.70;;;;;;;;;;4921715;29;20185;-85
2023/09/06 06:31:19;;;;;;;14.90;9.27;;;;;;;;;;4922388;29;20189;-84
2023/09/06 06:34:24;;;;;;;25.57;9.10;;;;;;;;;;4922412;29;20189;-85
2023/09/06 06:37:28;;;;;;;21.07;8.00;;;;;;;;;;4921450;29;20217;-85
2023/09/06 06:40:35;;;;;;;12.80;8.27;;;;;;;;;;4922524;29;20197;-85
2023/09/06 06:43:39;;;;;;;15.83;8.27;;;;;;;;;;4922121;29;20220;-85
2023/09/06 06:46:43;;;;;;;14.20;8.53;;;;;;;;;;4910809;29;20184;-85
2023/09/06 06:49:54;;;;;;;14.27;8.73;;;;;;;;;;4921662;29;20188;-85
2023/09/06 06:52:58;;;;;;;17.33;9.17;;;;;;;;;;4921635;29;20220;-85
2023/09/06 06:56:03;;;;;;;13.07;8.60;;;;;;;;;;4920986;29;20220;-85
2023/09/06 06:59:08;;;;;;;10.67;7.70;;;;;;;;;;4920831;29;20185;-85
2023/09/06 07:02:13;;;;;;;19.43;8.70;;;;;;;;;;4921213;29;20220;-85
2023/09/06 07:05:17;;;;;;;18.10;7.90;;;;;;;;;;4920871;29;20185;-84
2023/09/06 07:08:23;;;;;;;23.40;7.53;;;;;;;;;;4920979;29;20185;-87
2023/09/06 07:11:28;;;;;;;8.23;5.30;;;;;;;;;;4919940;29;20185;-85
2023/09/06 07:14:32;;;;;;;6.57;4.77;;;;;;;;;;4918705;29;20200;-86
2023/09/06 07:17:36;;;;;;;5.53;4.47;;;;;;;;;;4918863;29;20216;-86
2023/09/06 07:20:42;;;;;;;7.60;4.43;;;;;;;;;;4919656;29;20185;-85
2023/09/06 07:23:46;;;;;;;14.47;4.17;;;;;;;;;;4918768;29;20213;-85
2023/09/06 07:26:50;;;;;;;5.63;3.50;;;;;;;;;;4918496;29;20185;-86
2023/09/06 07:29:54;;;;;;;4.73;3.60;;;;;;;;;;4918115;29;20180;-85
2023/09/06 07:32:59;;;;;;;14.60;4.37;;;;;;;;;;4919132;29;20225;-85
2023/09/06 07:36:04;;;;;;;6.50;3.50;;;;;;;;;;4918942;29;20220;-85
2023/09/06 07:39:08;;;;;;;4.30;3.40;;;;;;;;;;4918227;29;20189;-85
2023/09/06 07:42:12;;;;;;;5.10;3.80;;;;;;;;;;4918854;29;20224;-85
2023/09/06 07:45:16;;;;;;;4.93;3.50;;;;;;;;;;4917223;29;20184;-85
2023/09/06 07:48:20;;;;;;;3.97;3.43;;;;;;;;;;4917346;29;20185;-85
2023/09/06 07:51:24;;;;;;;5.43;3.60;;;;;;;;;;4917766;29;20193;-85
2023/09/06 07:54:28;;;;;;;5.47;3.67;;;;;;;;;;4918367;29;20192;-85
2023/09/06 07:57:33;;;;;;;23.93;4.23;;;;;;;;;;4917439;29;20216;-85
2023/09/06 08:00:37;;;;;;;25.87;4.83;;;;;;;;;;4917976;29;20185;-85
2023/09/06 08:03:41;;;;;;;7.20;3.20;;;;;;;;;;4906075;29;20221;-85
2023/09/06 08:06:46;;;;;;;7.47;3.80;;;;;;;;;;4917668;29;20630;-85
2023/09/06 08:09:50;;;;;;;5.70;3.33;;;;;;;;;;4917631;29;20519;-85
2023/09/06 08:12:55;;;;;;;3.40;2.90;;;;;;;;;;4917833;29;20223;-85
2023/09/06 08:15:59;;;;;;;3.67;2.97;;;;;;;;;;4917184;29;20638;-85
2023/09/06 08:19:03;;;;;;;3.83;2.93;;;;;;;;;;4916861;29;20184;-85
2023/09/06 08:22:07;;;;;;;3.67;2.90;;;;;;;;;;4917931;29;20224;-85
2023/09/06 08:25:12;;;;;;;6.47;2.87;;;;;;;;;;4917519;29;20192;-85
2023/09/06 08:28:18;;;;;;;19.27;4.13;;;;;;;;;;4905702;29;20181;-86
2023/09/06 08:31:22;;;;;;;6.07;3.57;;;;;;;;;;4917100;29;20180;-87
2023/09/06 08:34:26;;;;;;;14.20;3.27;;;;;;;;;;4916623;29;20528;-85
2023/09/06 08:37:30;;;;;;;3.83;2.90;;;;;;;;;;4916157;29;20213;-86
2023/09/06 08:40:35;;;;;;;7.57;3.30;;;;;;;;;;4916900;29;20536;-85
2023/09/06 08:43:42;;;;;;;4.30;3.30;;;;;;;;;;4915984;29;20228;-86
2023/09/06 08:46:46;;;;;;;7.00;3.83;;;;;;;;;;4917883;29;20178;-84
2023/09/06 08:49:53;;;;;;;8.73;4.03;;;;;;;;;;4917604;29;20523;-85
2023/09/06 08:52:59;;;;;;;5.10;3.50;;;;;;;;;;4917022;29;20227;-85
2023/09/06 08:56:05;;;;;;;5.82;3.50;;;;;;;;;;4906083;29;20191;-85
2023/09/06 08:59:10;;;;;;;8.95;3.25;;;;;;;;;;4917339;29;20188;-87
2023/09/06 09:02:16;;;;;;;3.55;2.67;;;;;;;;;;4905277;29;20220;-87
2023/09/06 09:05:21;;;;;;;6.82;2.90;;;;;;;;;;4907237;29;20182;-87
2023/09/06 09:08:29;;;;;;;6.65;3.47;;;;;;;;;;4909000;29;20530;-87
2023/09/06 09:11:33;;;;;;;4.85;2.97;;;;;;;;;;4919804;29;20188;-87
2023/09/06 09:14:37;;;;;;;9.05;3.45;;;;;;;;;;4908650;29;20214;-87
2023/09/06 09:17:42;;;;;;;5.22;2.92;;;;;;;;;;4919350;29;20216;-87
2023/09/06 09:20:46;;;;;;;6.15;2.95;;;;;;;;;;4919360;29;20252;-87
2023/09/06 09:23:55;;;;;;;5.85;2.60;;;;;;;;;;4919543;29;20227;-88
2023/09/06 09:26:59;;;;;;;5.60;3.10;;;;;;;;;;4920181;29;20180;-87
2023/09/06 09:30:04;;;;;;;7.45;3.13;;;;;;;;;;4908565;29;20284;-87
2023/09/06 09:33:08;;;;;;;5.25;2.55;;;;;;;;;;4920028;29;20220;-87
2023/09/06 09:36:17;;;;;;;4.03;2.33;;;;;;;;;;4908733;29;20181;-87
2023/09/06 09:39:27;;;;;;;5.40;2.58;;;;;;;;;;4908258;29;20185;-87
2023/09/06 09:42:31;;;;;;;2.80;2.50;;;;;;;;;;4918969;29;20221;-87
2023/09/06 09:45:43;;;;;;;3.35;2.45;;;;;;;;;;4908427;29;20189;-88
2023/09/06 09:48:48;;;;;;;6.15;2.60;;;;;;;;;;4908983;29;20182;-83
2023/09/06 09:51:52;;;;;;;27.58;3.92;;;;;;;;;;4919372;29;20556;-87
2023/09/06 09:54:56;;;;;;;4.30;2.88;;;;;;;;;;4919238;29;20185;-87
2023/09/06 09:58:05;;;;;;;3.58;2.78;;;;;;;;;;4918741;29;20567;-87
2023/09/06 10:01:10;;;;;;;4.32;2.38;;;;;;;;;;4919127;29;20634;-88
2023/09/06 10:04:15;;;;;;;24.75;3.72;;;;;;;;;;4908201;29;20189;-88
2023/09/06 10:07:21;;;;;;;6.25;3.03;;;;;;;;;;4908186;29;20517;-88
2023/09/06 10:10:26;;;;;;;4.05;2.63;;;;;;;;;;4907706;29;20185;-88
2023/09/06 10:13:31;;;;;;;4.70;2.67;;;;;;;;;;4897269;29;20576;-87
2023/09/06 10:16:36;;;;;;;3.40;2.53;;;;;;;;;;4919459;29;20189;-86
2023/09/06 10:19:42;;;;;;;4.28;2.85;;;;;;;;;;4919230;29;20189;-86
2023/09/06 10:22:48;;;;;;;3.92;2.75;;;;;;;;;;4907668;29;20221;-86
2023/09/06 10:25:52;;;;;;;4.88;2.63;;;;;;;;;;4896914;29;20189;-87
2023/09/06 10:29:00;;;;;;;3.42;2.60;;;;;;;;;;4907844;29;20658;-87
2023/09/06 10:32:06;;;;;;;6.90;2.97;;;;;;;;;;4907488;29;20185;-86
2023/09/06 10:35:24;;;;;;;4.55;3.00;;;;;;;;;;4907620;29;20185;-86
2023/09/06 10:38:30;;;;;;;4.15;2.65;;;;;;;;;;4907420;29;20181;-86
2023/09/06 10:41:35;;;;;;;5.30;3.53;;;;;;;;;;4918494;29;20544;-86
2023/09/06 10:44:55;;;;;;;5.45;3.10;;;;;;;;;;4918117;29;20185;-87
2023/09/06 10:48:11;;;;;;;2.90;2.55;;;;;;;;;;4907079;29;20213;-87
2023/09/06 10:51:18;;;;;;;3.55;2.25;;;;;;;;;;4917908;29;20177;-87
2023/09/06 10:54:34;;;;;;;96.30;7.03;;;;;;;;;;4896259;29;20190;-86
2023/09/06 10:57:55;;;;;;;4.38;2.55;;;;;;;;;;4917902;29;20181;-85
2023/09/06 11:01:17;;;;;;;6.45;2.55;;;;;;;;;;4918183;29;20185;-86
2023/09/06 11:04:25;;;;;;;3.95;2.28;;;;;;;;;;4919208;29;20524;-85
2023/09/06 11:07:37;;;;;;;6.25;2.42;;;;;;;;;;4917622;29;20209;-86
2023/09/06 11:10:42;;;;;;;39.17;3.83;;;;;;;;;;4907391;29;20632;-86
2023/09/06 11:13:46;;;;;;;6.13;2.40;;;;;;;;;;4919728;29;20236;-86
2023/09/06 11:16:51;;;;;;;6.43;2.38;;;;;;;;;;4918222;29;20189;-86
2023/09/06 11:19:55;;;;;;;4.32;2.13;;;;;;;;;;4918552;29;20194;-84
2023/09/06 11:23:00;;;;;;;6.03;2.60;;;;;;;;;;4907303;29;20221;-84
2023/09/06 11:26:04;;;;;;;2.97;2.67;;;;;;;;;;4917736;29;20178;-84
2023/09/06 11:29:11;;;;;;;12.02;2.97;;;;;;;;;;4917964;29;20186;-84
2023/09/06 11:32:17;;;;;;;4.00;2.42;;;;;;;;;;4918566;29;20216;-84
2023/09/06 11:35:27;;;;;;;3.45;2.40;;;;;;;;;;4918717;29;20189;-84
2023/09/06 11:38:34;;;;;;;17.38;3.42;;;;;;;;;;4918971;29;20174;-84
2023/09/06 11:41:40;;;;;;;3.08;2.30;;;;;;;;;;4917823;29;20185;-84
2023/09/06 11:44:50;;;;;;;2.28;2.08;;;;;;;;;;4907965;29;20186;-85
2023/09/06 11:48:03;;;;;;;2.83;2.40;;;;;;;;;;4919138;29;20209;-85
2023/09/06 11:51:12;;;;;;;3.53;2.13;;;;;;;;;;4918626;29;20186;-85
2023/09/06 11:54:17;;;;;;;3.75;2.20;;;;;;;;;;4918606;29;20190;-85
2023/09/06 11:57:26;;;;;;;3.42;2.42;;;;;;;;;;4918128;29;20181;-85
2023/09/06 12:00:45;;;;;;;5.47;2.25;;;;;;;;;;4920462;29;20185;-83
2023/09/06 12:03:50;;;;;;;8.55;2.25;;;;;;;;;;4919833;29;20209;-83
2023/09/06 12:06:56;;;;;;;6.22;2.10;;;;;;;;;;4920155;29;20631;-84
2023/09/06 12:10:04;;;;;;;3.55;2.05;;;;;;;;;;4919962;29;20185;-84
2023/09/06 12:13:09;;;;;;;8.20;2.25;;;;;;;;;;4920320;29;20233;-84
2023/09/06 12:16:13;;;;;;;19.95;3.10;;;;;;;;;;4919927;29;20185;-83
2023/09/06 12:19:17;;;;;;;35.47;3.20;;;;;;;;;;4919477;29;20185;-84
2023/09/06 12:22:21;;;;;;;6.18;2.25;;;;;;;;;;4919268;29;20220;-84
2023/09/06 12:25:26;;;;;;;6.68;2.33;;;;;;;;;;4919621;29;20193;-84
2023/09/06 12:28:31;;;;;;;10.48;2.10;;;;;;;;;;4918779;29;20216;-84
2023/09/06 12:31:35;;;;;;;10.55;2.10;;;;;;;;;;4918015;29;20182;-84
2023/09/06 12:34:39;;;;;;;3.60;1.90;;;;;;;;;;4919347;29;20185;-84
2023/09/06 12:37:43;;;;;;;3.00;1.75;;;;;;;;;;4919036;29;20285;-84
2023/09/06 12:40:47;;;;;;;6.22;1.70;;;;;;;;;;4912463;29;20197;-84
2023/09/06 12:43:51;;;;;;;8.88;2.10;;;;;;;;;;4923046;29;20573;-83
2023/09/06 12:46:55;;;;;;;68.20;6.13;;;;;;;;;;4923356;29;20189;-84
2023/09/06 12:49:59;;;;;;;7.97;2.10;;;;;;;;;;4922373;29;20518;-83
2023/09/06 12:53:04;;;;;;;8.40;2.45;;;;;;;;;;4922649;29;20217;-84
2023/09/06 12:56:11;;;;;;;4.13;1.92;;;;;;;;;;4923630;29;20177;-84
2023/09/06 12:59:16;;;;;;;8.25;1.90;;;;;;;;;;4922144;29;20189;-83
2023/09/06 13:02:21;;;;;;;14.75;1.90;;;;;;;;;;4922912;29;20251;-83
2023/09/06 13:05:26;;;;;;;3.53;1.60;;;;;;;;;;4925508;29;20189;-82
2023/09/06 13:08:33;;;;;;;5.38;1.67;;;;;;;;;;4922066;29;20682;-83
2023/09/06 13:11:38;;;;;;;11.30;2.25;;;;;;;;;;4923156;29;20189;-83
2023/09/06 13:14:41;;;;;;;58.08;4.97;;;;;;;;;;4923401;29;20217;-83
2023/09/06 13:17:46;;;;;;;19.33;2.55;;;;;;;;;;4921693;29;20186;-86
2023/09/06 13:20:54;;;;;;;3.10;1.92;;;;;;;;;;4920070;29;20185;-86
2023/09/06 13:23:58;;;;;;;4.45;1.58;;;;;;;;;;4920909;29;20221;-86
2023/09/06 13:27:05;;;;;;;5.60;2.53;;;;;;;;;;4920047;29;20193;-86
2023/09/06 13:30:10;;;;;;;3.40;1.63;;;;;;;;;;4920537;29;20173;-86
2023/09/06 13:33:14;;;;;;;4.90;1.90;;;;;;;;;;4919798;29;20217;-86
2023/09/06 13:36:18;;;;;;;2.75;1.70;;;;;;;;;;4908678;29;20189;-86
2023/09/06 13:39:22;;;;;;;4.05;1.58;;;;;;;;;;4919421;29;20189;-86
2023/09/06 13:42:28;;;;;;;3.35;1.63;;;;;;;;;;4909322;29;20221;-86
2023/09/06 13:45:32;;;;;;;5.07;1.23;;;;;;;;;;4921448;29;20186;-86
2023/09/06 13:48:36;;;;;;;2.65;1.27;;;;;;;;;;4919630;29;20209;-86
2023/09/06 13:51:40;;;;;;;2.38;1.38;;;;;;;;;;4908698;29;20185;-86
2023/09/06 13:54:44;;;;;;;2.63;1.33;;;;;;;;;;4919556;29;20181;-86
2023/09/06 13:57:48;;;;;;;2.53;1.20;;;;;;;;;;4919248;29;20189;-86
2023/09/06 14:00:55;;;;;;;128.32;7.97;;;;;;;;;;4919645;29;20181;-86
2023/09/06 14:03:59;;;;;;;12.60;1.90;;;;;;;;;;4908075;29;20235;-86
2023/09/06 14:07:03;;;;;;;2.10;1.48;;;;;;;;;;4919360;29;20529;-86
2023/09/06 14:10:07;;;;;;;4.55;1.40;;;;;;;;;;4919319;29;20674;-86
2023/09/06 14:13:12;;;;;;;3.97;1.40;;;;;;;;;;4920132;29;20225;-86
2023/09/06 14:16:17;;;;;;;2.92;1.75;;;;;;;;;;4908703;29;20190;-86
2023/09/06 14:19:21;;;;;;;2.75;1.85;;;;;;;;;;4908257;29;20189;-86
2023/09/06 14:22:26;;;;;;;4.43;1.90;;;;;;;;;;4918949;29;20225;-86
2023/09/06 14:25:30;;;;;;;3.47;1.75;;;;;;;;;;4919951;29;20185;-86
2023/09/06 14:28:35;;;;;;;2.58;1.80;;;;;;;;;;4918604;29;20217;-86
2023/09/06 14:31:40;;;;;;;1.85;1.35;;;;;;;;;;4919394;29;20186;-86
2023/09/06 14:34:43;;;;;;;4.45;1.30;;;;;;;;;;4919151;29;20619;-82
2023/09/06 14:37:48;;;;;;;6.28;1.60;;;;;;;;;;4920404;29;20189;-80
2023/09/06 14:40:52;;;;;;;2.42;1.70;;;;;;;;;;4919277;29;20189;-86
2023/09/06 14:43:57;;;;;;;2.40;1.50;;;;;;;;;;4919266;29;20228;-86
2023/09/06 14:47:01;;;;;;;4.25;1.67;;;;;;;;;;4918502;29;20184;-86
2023/09/06 14:50:05;;;;;;;92.32;6.05;;;;;;;;;;4918588;29;20559;-86
2023/09/06 14:53:10;;;;;;;149.75;11.50;;;;;;;;;;4918327;29;20221;-86
2023/09/06 14:56:15;;;;;;;11.13;2.08;;;;;;;;;;4918755;29;20194;-86
2023/09/06 14:59:19;;;;;;;12.52;2.10;;;;;;;;;;4919162;29;20181;-86
2023/09/06 15:02:24;;;;;;;1.70;1.42;;;;;;;;;;4917499;29;20220;-86
2023/09/06 15:05:28;;;;;;;5.22;1.50;;;;;;;;;;4918873;29;20192;-86
2023/09/06 15:08:32;;;;;;;13.40;2.33;;;;;;;;;;4919052;29;20220;-86
2023/09/06 15:11:36;;;;;;;2.42;1.63;;;;;;;;;;4918326;29;20184;-86
2023/09/06 15:14:41;;;;;;;7.45;1.50;;;;;;;;;;4919853;29;20211;-84
2023/09/06 15:17:46;;;;;;;2.22;1.70;;;;;;;;;;4920587;29;20192;-85
2023/09/06 15:20:50;;;;;;;7.97;2.45;;;;;;;;;;4919596;29;20184;-86
2023/09/06 15:23:54;;;;;;;5.70;1.70;;;;;;;;;;4907495;29;20226;-86
2023/09/06 15:26:59;;;;;;;10.13;2.13;;;;;;;;;;4919442;29;20191;-86
2023/09/06 15:30:05;;;;;;;2.53;1.30;;;;;;;;;;4918909;29;20667;-88
2023/09/06 15:33:10;;;;;;;1.40;1.23;;;;;;;;;;4919385;29;20216;-86
2023/09/06 15:36:14;;;;;;;2.70;1.23;;;;;;;;;;4917254;29;20183;-87
2023/09/06 15:39:19;;;;;;;2.65;1.50;;;;;;;;;;4906543;29;20184;-87
2023/09/06 15:42:23;;;;;;;4.60;2.40;;;;;;;;;;4906188;29;20222;-87
2023/09/06 15:45:27;;;;;;;3.60;1.40;;;;;;;;;;4917772;29;20193;-87
2023/09/06 15:48:31;;;;;;;3.33;1.40;;;;;;;;;;4905842;29;20215;-87
2023/09/06 15:51:35;;;;;;;2.28;1.60;;;;;;;;;;4918105;29;20190;-87
2023/09/06 15:54:39;;;;;;;2.50;1.70;;;;;;;;;;4917403;29;20183;-87
2023/09/06 15:57:44;;;;;;;2.75;1.77;;;;;;;;;;4916759;29;20182;-87
2023/09/06 16:00:48;;;;;;;1.98;1.30;;;;;;;;;;4917649;29;20190;-87
2023/09/06 16:03:52;;;;;;;21.52;2.13;;;;;;;;;;4906246;29;20702;-87
2023/09/06 16:06:56;;;;;;;12.82;2.13;;;;;;;;;;4917188;29;20617;-87
2023/09/06 16:10:01;;;;;;;8.13;2.05;;;;;;;;;;4917135;29;20222;-87
2023/09/06 16:13:05;;;;;;;12.32;2.05;;;;;;;;;;4905936;29;20701;-85
2023/09/06 16:16:10;;;;;;;7.63;2.83;;;;;;;;;;4905699;29;20182;-85
2023/09/06 16:19:14;;;;;;;2.67;1.63;;;;;;;;;;4905975;29;20183;-85
2023/09/06 16:22:19;;;;;;;3.17;1.70;;;;;;;;;;4917778;29;20223;-85
2023/09/06 16:25:24;;;;;;;7.23;1.93;;;;;;;;;;4917796;29;20185;-85
2023/09/06 16:28:28;;;;;;;4.10;1.58;;;;;;;;;;4917604;29;20192;-85
2023/09/06 16:31:32;;;;;;;10.53;1.90;;;;;;;;;;4917306;29;20185;-85
2023/09/06 16:34:36;;;;;;;7.55;2.30;;;;;;;;;;4917534;29;20187;-86
2023/09/06 16:37:41;;;;;;;8.53;1.80;;;;;;;;;;4905644;29;20636;-85
2023/09/06 16:40:46;;;;;;;10.43;1.80;;;;;;;;;;4916419;29;20181;-85
2023/09/06 16:43:50;;;;;;;2.87;1.57;;;;;;;;;;4905575;29;20223;-85
2023/09/06 16:46:54;;;;;;;6.90;1.70;;;;;;;;;;4916511;29;20184;-85
2023/09/06 16:49:59;;;;;;;4.13;1.73;;;;;;;;;;4916425;29;20214;-85
2023/09/06 16:53:06;;;;;;;2.20;1.57;;;;;;;;;;4916916;29;20714;-85
2023/09/06 16:56:10;;;;;;;2.37;1.40;;;;;;;;;;4905697;29;20192;-85
2023/09/06 16:59:14;;;;;;;3.40;1.70;;;;;;;;;;4916231;29;20190;-85
2023/09/06 17:02:19;;;;;;;1.97;1.53;;;;;;;;;;4905212;29;20231;-85
2023/09/06 17:05:24;;;;;;;2.43;1.50;;;;;;;;;;4916260;29;20182;-85
2023/09/06 17:08:28;;;;;;;4.23;1.73;;;;;;;;;;4905700;29;20190;-85
2023/09/06 17:11:32;;;;;;;3.73;1.47;;;;;;;;;;4905661;29;20212;-85
2023/09/06 17:14:36;;;;;;;2.33;1.80;;;;;;;;;;4917196;29;20213;-85
2023/09/06 17:17:40;;;;;;;2.50;1.50;;;;;;;;;;4916125;29;20185;-85
2023/09/06 17:20:44;;;;;;;2.67;1.60;;;;;;;;;;4916187;29;20219;-85
2023/09/06 17:23:48;;;;;;;1.90;1.47;;;;;;;;;;4916188;29;20576;-85
2023/09/06 17:26:53;;;;;;;13.80;2.03;;;;;;;;;;4918810;29;20639;-85
2023/09/06 17:29:59;;;;;;;2.53;1.50;;;;;;;;;;4920829;29;20182;-85
2023/09/06 17:33:11;;;;;;;2.33;1.40;;;;;;;;;;4919387;29;20217;-85
2023/09/06 17:36:15;;;;;;;3.50;1.70;;;;;;;;;;4919481;29;20182;-85
2023/09/06 17:39:19;;;;;;;2.27;1.60;;;;;;;;;;4908446;29;20218;-85
2023/09/06 17:42:23;;;;;;;3.73;1.27;;;;;;;;;;4920005;29;20225;-85
2023/09/06 17:45:27;;;;;;;2.17;1.53;;;;;;;;;;4919524;29;20180;-85
2023/09/06 17:48:31;;;;;;;3.93;1.80;;;;;;;;;;4908407;29;20189;-85
2023/09/06 17:51:36;;;;;;;2.77;1.50;;;;;;;;;;4908640;29;20185;-85
2023/09/06 17:54:40;;;;;;;3.50;1.63;;;;;;;;;;4908332;29;20181;-85
2023/09/06 17:57:47;;;;;;;1.90;1.70;;;;;;;;;;4919610;29;20185;-85
2023/09/06 18:00:51;;;;;;;6.97;1.70;;;;;;;;;;4918998;29;20212;-85
2023/09/06 18:03:58;;;;;;;2.17;1.93;;;;;;;;;;4919015;29;20224;-85
2023/09/06 18:07:02;;;;;;;3.57;2.10;;;;;;;;;;4919954;29;20185;-85
2023/09/06 18:10:07;;;;;;;5.27;1.77;;;;;;;;;;4919647;29;20181;-85
2023/09/06 18:13:13;;;;;;;2.23;2.03;;;;;;;;;;4908228;29;20224;-85
2023/09/06 18:16:18;;;;;;;2.93;2.07;;;;;;;;;;4919593;29;20189;-85
2023/09/06 18:19:25;;;;;;;21.37;3.13;;;;;;;;;;4908113;29;20212;-85
2023/09/06 18:22:29;;;;;;;11.50;2.70;;;;;;;;;;4918743;29;20225;-84
2023/09/06 18:25:34;;;;;;;5.53;2.07;;;;;;;;;;4919428;29;20189;-85
2023/09/06 18:28:38;;;;;;;2.87;2.10;;;;;;;;;;4908218;29;20181;-85